Time;durP1;ratioP1;P1;durP2;ratioP2;P2;SDS_P1;SDS_P2;PMS_P1;PMS_P2;Temp;Humidity;BMP_temperature;BMP_pressure;BME280_temperature;BME280_humidity;BME280_pressure;Samples;Min_cycle;Max_cycle;Signal;HPM_P1;HPM_P2
2024/01/19 00:01:50;;;;;;;14.37;7.90;;;;;;;-4.00;100.00;98306.97;4174960;28;20302;-53
2024/01/19 00:03:51;;;;;;;8.00;7.33;;;;;;;-3.99;100.00;98304.09;4171466;28;20213;-52
2024/01/19 00:05:53;;;;;;;10.37;9.47;;;;;;;-4.04;100.00;98310.94;4173379;28;21238;-52
2024/01/19 00:07:55;;;;;;;9.27;8.57;;;;;;;-4.09;100.00;98308.78;4175396;28;20236;-52
2024/01/19 00:09:57;;;;;;;8.73;8.00;;;;;;;-4.18;100.00;98303.56;4169517;28;20744;-51
2024/01/19 00:11:59;;;;;;;10.07;9.30;;;;;;;-4.05;100.00;98314.63;4178489;28;20224;-52
2024/01/19 00:14:01;;;;;;;7.00;6.33;;;;;;;-3.97;100.00;98318.16;4179006;28;20725;-51
2024/01/19 00:16:03;;;;;;;7.63;7.20;;;;;;;-4.06;100.00;98324.44;4173540;28;20222;-51
2024/01/19 00:18:05;;;;;;;9.67;8.73;;;;;;;-4.02;100.00;98325.81;4173839;28;20728;-51
2024/01/19 00:20:08;;;;;;;9.10;8.30;;;;;;;-4.17;100.00;98326.59;4172171;28;20212;-51
2024/01/19 00:22:10;;;;;;;10.87;7.90;;;;;;;-4.09;100.00;98329.28;4169100;28;20228;-52
2024/01/19 00:24:15;;;;;;;11.73;8.70;;;;;;;-4.17;100.00;98337.28;4177516;28;20208;-52
2024/01/19 00:26:17;;;;;;;9.77;8.97;;;;;;;-4.12;100.00;98342.97;4160197;28;20205;-53
2024/01/19 00:28:19;;;;;;;6.37;5.87;;;;;;;-4.13;100.00;98343.97;4177610;28;20263;-52
2024/01/19 00:30:20;;;;;;;8.73;7.93;;;;;;;-4.19;100.00;98349.97;4165349;28;20231;-52
2024/01/19 00:32:22;;;;;;;10.50;8.87;;;;;;;-4.12;100.00;98351.00;4184393;28;20701;-52
2024/01/19 00:34:24;;;;;;;7.90;7.33;;;;;;;-4.12;100.00;98346.50;4186558;28;20574;-51
2024/01/19 00:36:26;;;;;;;8.33;7.53;;;;;;;-4.11;100.00;98358.84;4184819;28;20216;-52
2024/01/19 00:38:27;;;;;;;9.33;8.60;;;;;;;-4.11;100.00;98358.00;4166652;28;20208;-52
2024/01/19 00:40:29;;;;;;;9.37;8.67;;;;;;;-4.18;100.00;98362.31;4183719;28;20654;-52
2024/01/19 00:42:31;;;;;;;8.13;7.53;;;;;;;-4.19;100.00;98361.47;4169912;28;20243;-52
2024/01/19 00:44:33;;;;;;;8.10;7.50;;;;;;;-4.01;100.00;98356.03;4171188;28;20200;-52
2024/01/19 00:46:35;;;;;;;20.03;6.70;;;;;;;-4.09;100.00;98351.50;4167530;28;20207;-52
2024/01/19 00:48:37;;;;;;;8.33;7.60;;;;;;;-3.96;100.00;98356.38;4171138;28;20315;-52
2024/01/19 00:50:38;;;;;;;12.50;8.57;;;;;;;-4.05;100.00;98357.34;4168369;28;20675;-52
2024/01/19 00:52:40;;;;;;;7.53;7.13;;;;;;;-4.13;100.00;98365.34;4187653;28;20718;-52
2024/01/19 00:54:42;;;;;;;8.50;7.90;;;;;;;-4.07;100.00;98370.06;4168713;28;20223;-51
2024/01/19 00:56:44;;;;;;;8.77;8.27;;;;;;;-4.15;100.00;98378.03;4173780;28;20219;-52
2024/01/19 00:58:45;;;;;;;7.17;6.50;;;;;;;-4.12;100.00;98377.69;4153616;28;20256;-52
2024/01/19 01:00:47;;;;;;;7.77;6.70;;;;;;;-4.04;100.00;98380.38;4156735;28;20209;-52
2024/01/19 01:02:49;;;;;;;8.47;7.77;;;;;;;-4.08;100.00;98384.41;4169519;28;20227;-52
2024/01/19 01:04:51;;;;;;;9.10;8.30;;;;;;;-4.10;100.00;98391.72;4172349;28;20208;-51
2024/01/19 01:06:53;;;;;;;7.97;6.00;;;;;;;-4.11;100.00;98400.75;4172212;28;20657;-50
2024/01/19 01:08:54;;;;;;;9.87;6.30;;;;;;;-4.18;100.00;98397.03;4173025;28;20252;-52
2024/01/19 01:10:56;;;;;;;9.67;8.10;;;;;;;-4.24;100.00;98395.00;4171134;28;20208;-51
2024/01/19 01:13:01;;;;;;;7.77;7.20;;;;;;;-4.25;100.00;98398.69;4168664;28;20232;-53
2024/01/19 01:15:04;;;;;;;9.27;8.67;;;;;;;-4.26;100.00;98405.03;4171139;28;20208;-53
2024/01/19 01:17:05;;;;;;;8.70;8.10;;;;;;;-4.29;100.00;98416.00;4165622;28;20322;-52
2024/01/19 01:19:08;;;;;;;8.33;7.77;;;;;;;-4.31;100.00;98407.34;4172117;28;20196;-53
2024/01/19 01:21:09;;;;;;;7.23;6.53;;;;;;;-4.38;100.00;98416.97;4167829;28;20208;-52
2024/01/19 01:23:11;;;;;;;6.53;5.93;;;;;;;-4.42;100.00;98418.28;4183997;28;20216;-52
2024/01/19 01:25:13;;;;;;;6.80;6.30;;;;;;;-4.47;100.00;98425.94;4184310;28;20208;-52
2024/01/19 01:27:15;;;;;;;10.30;9.37;;;;;;;-4.48;100.00;98432.28;4183095;28;20216;-52
2024/01/19 01:29:17;;;;;;;7.67;7.13;;;;;;;-4.50;100.00;98439.59;4187356;28;20304;-53
2024/01/19 01:31:18;;;;;;;8.00;7.43;;;;;;;-4.54;100.00;98438.25;4169927;28;20208;-53
2024/01/19 01:33:20;;;;;;;9.07;8.27;;;;;;;-4.55;100.00;98442.75;4183112;28;20258;-53
2024/01/19 01:35:22;;;;;;;5.50;5.03;;;;;;;-4.57;100.00;98446.56;4167353;28;20342;-53
2024/01/19 01:37:24;;;;;;;7.07;6.57;;;;;;;-4.53;100.00;98438.06;4170186;28;20215;-52
2024/01/19 01:39:26;;;;;;;13.27;7.03;;;;;;;-4.54;100.00;98451.59;4172890;28;20209;-53
2024/01/19 01:41:28;;;;;;;8.57;8.03;;;;;;;-4.55;100.00;98455.25;4172758;28;20663;-51
2024/01/19 01:43:29;;;;;;;5.93;5.60;;;;;;;-4.51;100.00;98461.94;4171454;28;20214;-52
2024/01/19 01:45:32;;;;;;;8.53;7.83;;;;;;;-4.55;100.00;98461.44;4176619;28;20219;-52
2024/01/19 01:47:34;;;;;;;8.50;7.80;;;;;;;-4.58;100.00;98471.59;4169316;28;20220;-52
2024/01/19 01:49:36;;;;;;;6.97;6.53;;;;;;;-4.53;100.00;98469.28;4170428;28;20216;-52
2024/01/19 01:51:38;;;;;;;7.33;6.83;;;;;;;-4.60;100.00;98484.25;4168730;28;20238;-52
2024/01/19 01:53:40;;;;;;;6.53;6.03;;;;;;;-4.61;100.00;98483.41;4182577;28;20211;-52
2024/01/19 01:55:42;;;;;;;9.00;8.40;;;;;;;-4.61;100.00;98483.41;4174648;28;20596;-52
2024/01/19 01:57:45;;;;;;;5.73;5.33;;;;;;;-4.62;100.00;98486.22;4168699;28;20204;-52
2024/01/19 01:59:48;;;;;;;9.77;8.87;;;;;;;-4.75;100.00;98485.78;4164306;28;20208;-52
2024/01/19 02:01:49;;;;;;;8.70;7.17;;;;;;;-4.67;100.00;98483.22;4181848;28;20318;-52
2024/01/19 02:03:54;;;;;;;6.10;5.70;;;;;;;-4.73;100.00;98484.66;4171161;28;20215;-52
2024/01/19 02:05:56;;;;;;;8.43;7.93;;;;;;;-4.80;100.00;98477.44;4160079;28;20638;-52
2024/01/19 02:07:58;;;;;;;9.87;8.97;;;;;;;-4.90;100.00;98493.53;4184325;28;20228;-50
2024/01/19 02:09:59;;;;;;;7.63;7.17;;;;;;;-4.95;100.00;98492.31;4165962;28;20266;-53
2024/01/19 02:12:04;;;;;;;7.87;7.27;;;;;;;-4.94;100.00;98500.16;4165626;28;20227;-52
2024/01/19 02:14:06;;;;;;;6.83;6.40;;;;;;;-5.01;100.00;98496.44;4154357;28;20212;-52
2024/01/19 02:16:08;;;;;;;10.30;6.80;;;;;;;-5.05;100.00;98500.41;4171589;28;20589;-52
2024/01/19 02:18:10;;;;;;;6.33;5.80;;;;;;;-5.06;100.00;98489.91;4169942;28;20251;-51
2024/01/19 02:20:12;;;;;;;8.63;7.83;;;;;;;-5.06;100.00;98497.91;4172386;28;20246;-51
2024/01/19 02:22:14;;;;;;;8.17;7.47;;;;;;;-5.15;100.00;98483.66;4183405;28;20227;-52
2024/01/19 02:24:16;;;;;;;8.40;6.80;;;;;;;-5.17;100.00;98493.63;4184294;28;20677;-51
2024/01/19 02:26:17;;;;;;;7.43;6.80;;;;;;;-5.18;100.00;98494.63;4171051;28;20204;-53
2024/01/19 02:28:20;;;;;;;7.60;7.13;;;;;;;-5.12;100.00;98499.34;4170318;28;20749;-52
2024/01/19 02:30:22;;;;;;;7.33;6.93;;;;;;;-5.20;100.00;98493.94;4166052;28;20209;-53
2024/01/19 02:32:23;;;;;;;7.63;7.17;;;;;;;-5.21;100.00;98494.91;4169974;28;20236;-53
2024/01/19 02:34:25;;;;;;;7.60;7.10;;;;;;;-5.25;100.00;98484.72;4184010;28;20860;-53
2024/01/19 02:36:27;;;;;;;7.50;6.90;;;;;;;-5.30;100.00;98500.31;4171732;28;20231;-53
2024/01/19 02:38:29;;;;;;;6.90;6.30;;;;;;;-5.34;100.00;98493.66;4171947;28;20572;-51
2024/01/19 02:40:34;;;;;;;7.63;7.13;;;;;;;-5.29;100.00;98496.66;4167971;28;20240;-50
2024/01/19 02:42:36;;;;;;;6.70;6.23;;;;;;;-5.34;100.00;98500.78;4167583;28;20612;-52
2024/01/19 02:44:37;;;;;;;7.27;6.87;;;;;;;-5.41;100.00;98494.38;4169844;28;20265;-51
2024/01/19 02:46:39;;;;;;;6.30;5.90;;;;;;;-5.42;100.00;98490.88;4165894;28;20231;-52
2024/01/19 02:48:41;;;;;;;6.40;6.00;;;;;;;-5.39;100.00;98495.91;4170188;28;20227;-53
2024/01/19 02:50:43;;;;;;;11.10;7.37;;;;;;;-5.52;100.00;98500.78;4168902;28;21132;-52
2024/01/19 02:52:45;;;;;;;14.70;7.43;;;;;;;-5.49;100.00;98505.78;4154325;28;20220;-53
2024/01/19 02:54:47;;;;;;;6.80;6.10;;;;;;;-5.54;100.00;98497.44;4169758;28;20258;-51
2024/01/19 02:56:49;;;;;;;7.20;6.70;;;;;;;-5.56;100.00;98507.38;4167101;28;20250;-54
2024/01/19 02:58:50;;;;;;;8.30;7.73;;;;;;;-5.56;100.00;98498.56;4170766;28;20204;-52
2024/01/19 03:00:54;;;;;;;5.63;5.27;;;;;;;-5.56;100.00;98504.72;4166571;28;20293;-52
2024/01/19 03:02:56;;;;;;;12.07;6.37;;;;;;;-5.50;100.00;98506.78;4169048;28;20233;-51
2024/01/19 03:04:57;;;;;;;7.17;6.70;;;;;;;-5.61;100.00;98501.69;4168239;28;20204;-52
2024/01/19 03:06:59;;;;;;;5.23;4.77;;;;;;;-5.68;100.00;98505.94;4167539;28;20211;-52
2024/01/19 03:09:01;;;;;;;6.97;6.47;;;;;;;-5.72;100.00;98507.22;4168817;28;20236;-52
2024/01/19 03:11:02;;;;;;;7.70;7.00;;;;;;;-5.77;100.00;98517.47;4169550;28;20208;-51
2024/01/19 03:13:04;;;;;;;7.00;6.43;;;;;;;-5.79;100.00;98523.97;4172054;28;20293;-52
2024/01/19 03:15:06;;;;;;;7.30;5.83;;;;;;;-5.78;100.00;98522.94;4168592;28;20688;-52
2024/01/19 03:17:08;;;;;;;6.03;5.63;;;;;;;-5.75;100.00;98528.81;4170770;28;20222;-52
2024/01/19 03:19:10;;;;;;;7.60;7.20;;;;;;;-5.77;100.00;98529.97;4166994;28;20242;-52
2024/01/19 03:21:12;;;;;;;7.53;4.87;;;;;;;-5.77;100.00;98527.31;4170261;28;20631;-52
2024/01/19 03:23:14;;;;;;;7.13;6.53;;;;;;;-5.77;100.00;98529.97;4172292;28;20216;-52
2024/01/19 03:25:15;;;;;;;8.00;7.50;;;;;;;-5.88;100.00;98533.66;4184514;28;20209;-52
2024/01/19 03:27:17;;;;;;;8.53;7.83;;;;;;;-5.80;100.00;98532.94;4186062;28;20211;-52
2024/01/19 03:29:20;;;;;;;7.83;7.23;;;;;;;-5.83;100.00;98539.41;4175873;28;20231;-53
2024/01/19 03:31:21;;;;;;;10.93;6.80;;;;;;;-5.84;100.00;98537.72;4185826;28;20251;-53
2024/01/19 03:33:23;;;;;;;6.77;6.27;;;;;;;-5.82;100.00;98530.41;4177602;28;20213;-52
2024/01/19 03:35:25;;;;;;;9.27;8.40;;;;;;;-5.94;100.00;98525.44;4173013;28;20200;-53
2024/01/19 03:37:27;;;;;;;10.73;8.53;;;;;;;-5.78;100.00;98526.44;4162364;28;20234;-53
2024/01/19 03:39:33;;;;;;;7.27;6.63;;;;;;;-5.93;100.00;98538.63;4172894;28;20208;-53
2024/01/19 03:41:34;;;;;;;7.27;6.73;;;;;;;-5.90;100.00;98535.66;4174364;28;20802;-52
2024/01/19 03:43:36;;;;;;;9.57;8.83;;;;;;;-5.95;100.00;98540.56;4170373;28;20274;-53
2024/01/19 03:45:38;;;;;;;11.17;9.10;;;;;;;-5.95;100.00;98529.09;4169773;28;20644;-52
2024/01/19 03:47:40;;;;;;;6.97;6.40;;;;;;;-6.03;100.00;98537.81;4167607;28;20283;-53
2024/01/19 03:49:41;;;;;;;7.27;6.93;;;;;;;-6.02;100.00;98531.50;4168269;28;20606;-53
2024/01/19 03:52:01;;;;;;;8.10;7.60;;;;;;;-6.09;100.00;98537.56;4169509;28;20776;-53
2024/01/19 03:54:02;;;;;;;7.57;7.00;;;;;;;-6.04;100.00;98536.13;4186165;28;20211;-51
2024/01/19 03:56:04;;;;;;;10.57;8.03;;;;;;;-6.16;100.00;98537.31;4155966;28;20212;-53
2024/01/19 03:58:06;;;;;;;7.43;6.97;;;;;;;-6.16;100.00;98537.31;4186063;28;20257;-52
2024/01/19 04:00:08;;;;;;;11.47;9.03;;;;;;;-6.21;100.00;98541.41;4152042;28;20219;-52
2024/01/19 04:02:11;;;;;;;8.37;7.60;;;;;;;-6.17;100.00;98538.28;4172051;28;20593;-52
2024/01/19 04:04:13;;;;;;;9.97;7.37;;;;;;;-6.26;100.00;98541.84;4185822;28;20235;-52
2024/01/19 04:06:15;;;;;;;5.87;5.57;;;;;;;-6.27;100.00;98544.63;4167666;28;20262;-52
2024/01/19 04:08:19;;;;;;;9.50;8.27;;;;;;;-6.29;100.00;98547.44;4168760;28;20209;-52
2024/01/19 04:10:21;;;;;;;8.70;6.50;;;;;;;-6.27;100.00;98540.16;4172250;28;20204;-53
2024/01/19 04:12:23;;;;;;;7.17;6.60;;;;;;;-6.36;100.00;98546.34;4152469;28;20232;-53
2024/01/19 04:14:24;;;;;;;7.53;6.87;;;;;;;-6.32;100.00;98547.75;4168459;28;20922;-52
2024/01/19 04:16:26;;;;;;;8.67;7.33;;;;;;;-6.39;100.00;98551.97;4172265;28;20215;-51
2024/01/19 04:18:28;;;;;;;6.80;6.23;;;;;;;-6.39;100.00;98557.28;4169654;28;20208;-52
2024/01/19 04:20:30;;;;;;;6.30;5.77;;;;;;;-6.42;100.00;98562.88;4154731;28;20231;-53
2024/01/19 04:22:32;;;;;;;11.87;9.13;;;;;;;-6.45;100.00;98560.50;4168122;28;20232;-51
2024/01/19 04:24:34;;;;;;;14.43;9.90;;;;;;;-6.43;100.00;98569.19;4158599;28;20212;-52
2024/01/19 04:26:35;;;;;;;8.57;7.83;;;;;;;-6.42;100.00;98557.56;4159119;28;20212;-52
2024/01/19 04:28:39;;;;;;;6.00;5.60;;;;;;;-6.47;100.00;98570.47;4167683;28;20312;-52
2024/01/19 04:30:40;;;;;;;6.90;6.27;;;;;;;-6.42;100.00;98575.34;4168823;28;20210;-51
2024/01/19 04:32:42;;;;;;;8.20;7.80;;;;;;;-6.40;100.00;98571.56;4165317;28;20259;-51
2024/01/19 04:34:44;;;;;;;6.37;5.97;;;;;;;-6.53;100.00;98576.34;4170728;28;20208;-52
2024/01/19 04:36:47;;;;;;;10.37;7.20;;;;;;;-6.52;100.00;98578.03;4182882;28;20253;-52
2024/01/19 04:38:51;;;;;;;7.03;6.47;;;;;;;-6.50;100.00;98586.69;4166127;28;20204;-51
2024/01/19 04:40:54;;;;;;;4.83;4.60;;;;;;;-6.53;100.00;98592.31;4165506;28;20240;-52
2024/01/19 04:42:55;;;;;;;7.57;7.00;;;;;;;-6.61;100.00;98589.53;4169043;28;20593;-53
2024/01/19 04:44:57;;;;;;;18.13;7.87;;;;;;;-6.60;100.00;98591.22;4170920;28;20663;-53
2024/01/19 04:46:59;;;;;;;7.40;6.97;;;;;;;-6.66;100.00;98597.09;4169912;28;20299;-53
2024/01/19 04:49:01;;;;;;;7.90;7.27;;;;;;;-6.69;100.00;98597.34;4167158;28;20220;-51
2024/01/19 04:51:05;;;;;;;6.77;6.40;;;;;;;-6.70;100.00;98590.38;4181285;28;20265;-52
2024/01/19 04:53:06;;;;;;;6.60;6.20;;;;;;;-6.72;100.00;98597.66;4168397;28;20204;-52
2024/01/19 04:55:08;;;;;;;6.30;5.90;;;;;;;-6.77;100.00;98599.06;4167557;28;20196;-52
2024/01/19 04:57:10;;;;;;;8.30;7.70;;;;;;;-6.75;100.00;98597.91;4169956;28;20674;-52
2024/01/19 04:59:12;;;;;;;6.37;5.80;;;;;;;-6.66;100.00;98599.75;4183869;28;20204;-52
2024/01/19 05:01:14;;;;;;;6.20;5.87;;;;;;;-6.59;100.00;98598.19;4185265;28;20215;-52
2024/01/19 05:03:17;;;;;;;9.30;8.77;;;;;;;-6.64;100.00;98602.25;4167675;28;20291;-51
2024/01/19 05:05:18;;;;;;;9.43;8.63;;;;;;;-6.61;100.00;98605.50;4155321;28;20244;-52
2024/01/19 05:07:20;;;;;;;15.17;6.10;;;;;;;-6.55;100.00;98604.91;4158352;28;21202;-50
2024/01/19 05:09:22;;;;;;;7.50;7.00;;;;;;;-6.50;100.00;98607.16;4169887;28;20231;-51
2024/01/19 05:11:24;;;;;;;8.47;7.73;;;;;;;-6.50;100.00;98613.31;4166755;28;20609;-51
2024/01/19 05:13:25;;;;;;;9.17;8.60;;;;;;;-6.50;100.00;98615.97;4149660;28;23655;-51
2024/01/19 05:15:27;;;;;;;10.53;9.53;;;;;;;-6.49;100.00;98620.31;4151949;28;20213;-52
2024/01/19 05:17:29;;;;;;;8.53;7.70;;;;;;;-6.43;100.00;98618.91;4168949;28;20210;-52
2024/01/19 05:19:31;;;;;;;7.43;6.77;;;;;;;-6.35;100.00;98630.50;4169042;28;20208;-53
2024/01/19 05:21:33;;;;;;;10.97;8.00;;;;;;;-6.28;100.00;98639.59;4167933;28;20561;-52
2024/01/19 05:23:35;;;;;;;9.40;8.80;;;;;;;-6.23;100.00;98642.69;4154166;28;20282;-52
2024/01/19 05:25:37;;;;;;;7.23;6.83;;;;;;;-6.19;100.00;98649.41;4168509;28;20283;-50
2024/01/19 05:27:41;;;;;;;7.00;6.60;;;;;;;-6.13;100.00;98648.84;4166019;28;20216;-52
2024/01/19 05:29:43;;;;;;;8.73;7.93;;;;;;;-6.06;100.00;98657.94;4154602;28;20345;-52
2024/01/19 05:31:45;;;;;;;6.17;5.67;;;;;;;-5.93;100.00;98666.44;4170168;28;20289;-51
2024/01/19 05:33:46;;;;;;;6.20;5.60;;;;;;;-5.94;100.00;98664.78;4154689;28;20224;-52
2024/01/19 05:35:48;;;;;;;9.83;6.90;;;;;;;-5.71;100.00;98665.19;4167214;28;20655;-53
2024/01/19 05:37:50;;;;;;;8.93;8.33;;;;;;;-5.82;100.00;98660.94;4168347;28;20311;-52
2024/01/19 05:39:52;;;;;;;6.93;6.53;;;;;;;-5.71;100.00;98665.19;4167846;28;20254;-53
2024/01/19 05:41:54;;;;;;;5.37;4.97;;;;;;;-5.77;100.00;98671.97;4167969;28;20251;-52
2024/01/19 05:43:55;;;;;;;8.60;6.47;;;;;;;-5.83;100.00;98680.56;4170765;28;20271;-52
2024/01/19 05:45:57;;;;;;;6.47;6.00;;;;;;;-5.79;100.00;98683.78;4174133;28;20251;-51
2024/01/19 05:47:59;;;;;;;9.87;7.07;;;;;;;-5.74;100.00;98677.03;4174401;28;20203;-52
2024/01/19 05:50:04;;;;;;;11.27;7.40;;;;;;;-5.72;100.00;98684.84;4170241;28;20910;-51
2024/01/19 05:52:06;;;;;;;8.63;8.13;;;;;;;-5.80;100.00;98685.63;4170873;28;20223;-53
2024/01/19 05:54:08;;;;;;;6.27;5.87;;;;;;;-5.73;100.00;98689.34;4175254;28;20568;-52
2024/01/19 05:56:10;;;;;;;4.37;4.17;;;;;;;-5.74;100.00;98690.34;4151239;28;20217;-52
2024/01/19 05:58:11;;;;;;;6.97;6.63;;;;;;;-5.59;100.00;98686.22;4167845;28;20200;-52
2024/01/19 06:00:13;;;;;;;10.73;6.43;;;;;;;-5.65;100.00;98692.13;4173548;28;20258;-50
2024/01/19 06:02:15;;;;;;;5.87;5.63;;;;;;;-5.70;100.00;98691.72;4156934;28;20290;-52
2024/01/19 06:04:18;;;;;;;8.60;7.17;;;;;;;-5.65;100.00;98692.13;4182562;28;20203;-52
2024/01/19 06:06:19;;;;;;;8.83;6.90;;;;;;;-5.64;100.00;98699.13;4184881;28;20268;-53
2024/01/19 06:08:21;;;;;;;9.80;6.17;;;;;;;-5.67;100.00;98710.09;4172587;28;20215;-51
2024/01/19 06:10:28;;;;;;;10.40;9.73;;;;;;;-5.73;100.00;98709.81;4174018;28;20302;-53
2024/01/19 06:12:30;;;;;;;6.97;6.50;;;;;;;-5.65;100.00;98721.44;4154558;28;20714;-52
2024/01/19 06:14:32;;;;;;;6.53;6.03;;;;;;;-5.71;100.00;98718.47;4184411;28;20208;-52
2024/01/19 06:16:38;;;;;;;6.73;6.13;;;;;;;-5.71;100.00;98722.00;4164374;28;20295;-51
2024/01/19 06:18:41;;;;;;;8.80;7.90;;;;;;;-5.72;100.00;98738.13;4169087;28;20209;-53
2024/01/19 06:20:43;;;;;;;6.70;6.30;;;;;;;-5.67;100.00;98731.41;4170841;28;20666;-53
2024/01/19 06:22:45;;;;;;;7.53;7.00;;;;;;;-5.65;100.00;98740.09;4165534;28;21974;-53
2024/01/19 06:24:51;;;;;;;8.17;7.47;;;;;;;-5.98;100.00;98743.25;4182978;28;20844;-51
2024/01/19 06:26:57;;;;;;;8.07;7.30;;;;;;;-5.95;100.00;98747.47;4151313;28;20212;-52
2024/01/19 06:29:01;;;;;;;6.07;5.67;;;;;;;-5.85;100.00;98749.13;4153201;28;20216;-53
2024/01/19 06:31:07;;;;;;;5.67;5.30;;;;;;;-5.94;100.00;98755.31;4165673;28;20270;-52
2024/01/19 06:33:09;;;;;;;8.30;7.70;;;;;;;-5.92;100.00;98758.66;4182438;28;20680;-53
2024/01/19 06:35:11;;;;;;;8.30;7.60;;;;;;;-5.97;100.00;98755.59;4167837;28;20243;-51
2024/01/19 06:37:13;;;;;;;6.80;6.37;;;;;;;-6.04;100.00;98762.44;4167232;28;20226;-52
2024/01/19 06:39:15;;;;;;;11.53;9.97;;;;;;;-6.08;100.00;98763.69;4168204;28;20346;-51
2024/01/19 06:41:16;;;;;;;9.63;8.63;;;;;;;-6.16;100.00;98768.91;4148896;28;20596;-51
2024/01/19 06:43:18;;;;;;;11.77;8.50;;;;;;;-6.20;100.00;98786.16;4168066;28;20266;-51
2024/01/19 06:45:20;;;;;;;12.33;11.10;;;;;;;-6.17;100.00;98790.34;4164797;28;20716;-51
2024/01/19 06:47:21;;;;;;;14.80;13.33;;;;;;;-6.23;100.00;98799.72;4166125;28;21530;-51
2024/01/19 06:49:23;;;;;;;15.13;10.40;;;;;;;-6.23;100.00;98802.38;4170043;28;22839;-51
2024/01/19 06:51:28;;;;;;;12.07;9.97;;;;;;;-6.30;100.00;98801.25;4170679;28;20659;-52
2024/01/19 06:53:30;;;;;;;23.63;12.17;;;;;;;-6.27;100.00;98810.78;4184124;28;20203;-52
2024/01/19 06:55:32;;;;;;;13.57;9.20;;;;;;;-6.37;100.00;98813.44;4166176;28;20219;-51
2024/01/19 06:57:33;;;;;;;8.70;7.97;;;;;;;-6.23;100.00;98813.03;4169963;28;20265;-51
2024/01/19 06:59:35;;;;;;;11.77;10.93;;;;;;;-6.23;100.00;98821.00;4168277;28;20207;-51
2024/01/19 07:01:38;;;;;;;8.97;8.17;;;;;;;-6.40;100.00;98815.53;4156897;28;20229;-51
2024/01/19 07:03:41;;;;;;;13.50;9.20;;;;;;;-6.44;100.00;98822.94;4181158;28;20203;-52
2024/01/19 07:05:42;;;;;;;12.13;11.00;;;;;;;-6.43;100.00;98827.28;4180017;28;20203;-52
2024/01/19 07:07:44;;;;;;;10.00;7.30;;;;;;;-6.50;100.00;98841.28;4171332;28;20235;-51
2024/01/19 07:09:47;;;;;;;10.83;10.00;;;;;;;-6.55;100.00;98848.81;4167847;28;20656;-53
2024/01/19 07:11:49;;;;;;;11.10;9.93;;;;;;;-6.59;100.00;98847.41;4170304;28;20808;-52
2024/01/19 07:13:51;;;;;;;13.23;8.90;;;;;;;-6.65;100.00;98854.13;4174087;28;20208;-52
2024/01/19 07:15:53;;;;;;;8.63;8.13;;;;;;;-6.54;100.00;98850.50;4183820;28;20208;-52
2024/01/19 07:17:54;;;;;;;9.10;8.50;;;;;;;-6.54;100.00;98851.38;4184793;28;20207;-52
2024/01/19 07:19:58;;;;;;;7.10;6.67;;;;;;;-6.70;100.00;98856.34;4166728;28;20204;-52
2024/01/19 07:22:00;;;;;;;10.13;9.50;;;;;;;-6.77;100.00;98860.50;4173779;28;20220;-51
2024/01/19 07:24:02;;;;;;;8.03;7.43;;;;;;;-7.00;100.00;98853.69;4170725;28;20299;-51
2024/01/19 07:26:04;;;;;;;8.27;7.60;;;;;;;-6.89;100.00;98861.56;4173498;28;20210;-51
2024/01/19 07:28:05;;;;;;;8.97;8.20;;;;;;;-6.96;100.00;98860.41;4183477;28;20206;-53
2024/01/19 07:30:07;;;;;;;9.17;8.47;;;;;;;-6.89;100.00;98872.22;4172815;28;20228;-51
2024/01/19 07:32:12;;;;;;;11.77;10.93;;;;;;;-6.63;100.00;98867.28;4174009;28;20220;-52
2024/01/19 07:34:14;;;;;;;9.37;8.77;;;;;;;-6.77;100.00;98860.50;4172503;28;20558;-52
2024/01/19 07:36:16;;;;;;;7.17;6.63;;;;;;;-6.66;100.00;98868.41;4170542;28;20212;-52
2024/01/19 07:38:18;;;;;;;7.07;6.70;;;;;;;-6.62;100.00;98869.78;4150977;28;20216;-52
2024/01/19 07:40:20;;;;;;;9.37;8.70;;;;;;;-6.54;100.00;98875.31;4166427;28;20250;-52
2024/01/19 07:42:22;;;;;;;7.13;6.63;;;;;;;-6.54;100.00;98883.28;4167215;28;20275;-53
2024/01/19 07:44:24;;;;;;;9.70;9.00;;;;;;;-6.49;100.00;98881.03;4167906;28;20689;-51
2024/01/19 07:46:25;;;;;;;7.33;6.80;;;;;;;-6.37;100.00;98882.63;4168192;28;20218;-52
2024/01/19 07:48:27;;;;;;;9.80;9.07;;;;;;;-6.42;100.00;98887.50;4180488;28;20203;-51
2024/01/19 07:50:29;;;;;;;7.13;6.47;;;;;;;-6.14;100.00;98880.56;4179217;28;20228;-51
2024/01/19 07:52:31;;;;;;;17.37;11.93;;;;;;;-6.36;100.00;98886.13;4182901;28;20814;-51
2024/01/19 07:54:33;;;;;;;9.03;8.43;;;;;;;-6.34;100.00;98895.69;4162361;28;20201;-51
2024/01/19 07:56:34;;;;;;;9.00;8.30;;;;;;;-6.17;100.00;98897.66;4159208;28;21124;-52
2024/01/19 07:58:36;;;;;;;12.27;11.13;;;;;;;-6.35;100.00;98904.59;4184397;28;20260;-51
2024/01/19 08:00:38;;;;;;;17.43;15.97;;;;;;;-6.29;100.00;98906.72;4181960;28;20200;-51
2024/01/19 08:02:44;;;;;;;16.93;12.23;;;;;;;-6.19;100.00;98917.41;4180845;28;20314;-52
2024/01/19 08:04:46;;;;;;;11.90;11.03;;;;;;;-6.39;100.00;98919.19;4184329;28;20650;-52
2024/01/19 08:06:48;;;;;;;15.23;13.90;;;;;;;-6.40;100.00;98921.97;4182459;28;20208;-52
2024/01/19 08:08:49;;;;;;;14.47;9.53;;;;;;;-6.17;100.00;98929.59;4165418;28;20223;-52
2024/01/19 08:10:51;;;;;;;20.70;14.03;;;;;;;-6.10;100.00;98928.09;4185504;28;20232;-52
2024/01/19 08:12:53;;;;;;;10.13;9.30;;;;;;;-5.94;100.00;98931.09;4180462;28;20235;-51
2024/01/19 08:14:57;;;;;;;9.83;8.93;;;;;;;-5.84;100.00;98936.44;4200676;28;20244;-52
2024/01/19 08:16:59;;;;;;;13.40;10.63;;;;;;;-5.85;100.00;98940.91;4186681;28;20763;-51
2024/01/19 08:19:02;;;;;;;12.23;10.80;;;;;;;-5.88;100.00;98935.81;4174941;28;20224;-53
2024/01/19 08:21:04;;;;;;;15.53;9.00;;;;;;;-5.85;100.00;98943.56;4186210;28;20199;-51
2024/01/19 08:23:07;;;;;;;13.90;11.33;;;;;;;-5.66;100.00;98937.38;4188076;28;20208;-52
2024/01/19 08:25:09;;;;;;;13.33;9.87;;;;;;;-5.44;100.00;98940.63;4172834;28;20649;-52
2024/01/19 08:27:11;;;;;;;11.10;10.03;;;;;;;-5.43;100.00;98944.97;4185321;28;20605;-52
2024/01/19 08:29:13;;;;;;;11.00;10.10;;;;;;;-5.24;100.00;98952.97;4186116;28;20203;-52
2024/01/19 08:31:15;;;;;;;20.30;13.10;;;;;;;-5.20;100.00;98954.38;4201962;28;20226;-52
2024/01/19 08:33:16;;;;;;;13.70;12.77;;;;;;;-5.05;100.00;98955.63;4168170;28;20216;-52
2024/01/19 08:35:18;;;;;;;10.87;10.13;;;;;;;-5.05;100.00;98958.28;4184622;28;20221;-52
2024/01/19 08:37:20;;;;;;;11.27;10.43;;;;;;;-5.01;100.00;98960.53;4183957;28;20568;-51
2024/01/19 08:39:22;;;;;;;11.87;11.10;;;;;;;-4.94;100.00;98955.47;4183153;28;20220;-51
2024/01/19 08:41:24;;;;;;;11.23;10.27;;;;;;;-4.70;100.00;98958.50;4197970;28;20579;-53
2024/01/19 08:43:26;;;;;;;9.17;8.37;;;;;;;-4.62;100.00;98967.47;4186147;28;20310;-52
2024/01/19 08:45:28;;;;;;;11.50;9.93;;;;;;;-4.52;100.00;98968.31;4171303;28;20210;-52
2024/01/19 08:47:32;;;;;;;9.00;8.40;;;;;;;-4.41;100.00;98965.44;4187527;28;20203;-53
2024/01/19 08:49:34;;;;;;;9.93;9.17;;;;;;;-4.27;100.00;98966.81;4184622;28;20215;-52
2024/01/19 08:51:36;;;;;;;10.33;9.53;;;;;;;-4.33;100.00;98978.06;4185095;28;20361;-53
2024/01/19 08:53:38;;;;;;;9.10;8.40;;;;;;;-4.25;100.00;98978.16;4181679;28;20220;-52
2024/01/19 08:55:42;;;;;;;9.67;8.40;;;;;;;-4.22;100.00;98985.88;4181968;28;20362;-51
2024/01/19 08:57:43;;;;;;;10.30;9.67;;;;;;;-4.28;100.00;98975.81;4201022;28;20304;-53
2024/01/19 08:59:45;;;;;;;9.20;8.43;;;;;;;-4.37;100.00;98972.19;4182254;28;20216;-53
2024/01/19 09:01:47;;;;;;;8.93;8.13;;;;;;;-4.40;100.00;98979.63;4167146;28;20383;-53
2024/01/19 09:03:49;;;;;;;9.77;6.87;;;;;;;-4.33;100.00;98972.72;4187136;28;20238;-53
2024/01/19 09:05:52;;;;;;;8.47;7.73;;;;;;;-4.33;100.00;98984.22;4187828;28;20243;-52
2024/01/19 09:07:54;;;;;;;6.13;5.73;;;;;;;-4.30;100.00;98996.44;4187885;28;20211;-51
2024/01/19 09:09:55;;;;;;;6.43;6.07;;;;;;;-4.35;100.00;99002.22;4183177;28;20204;-52
2024/01/19 09:11:57;;;;;;;10.93;10.17;;;;;;;-4.23;100.00;99006.41;4198653;28;20340;-52
2024/01/19 09:13:59;;;;;;;8.10;7.40;;;;;;;-4.18;100.00;99000.63;4182757;28;20616;-51
2024/01/19 09:16:01;;;;;;;10.37;9.33;;;;;;;-4.02;100.00;99003.50;4184822;28;20218;-52
2024/01/19 09:18:03;;;;;;;8.07;7.57;;;;;;;-3.88;100.00;99005.72;4183282;28;20207;-51
2024/01/19 09:20:06;;;;;;;10.87;6.17;;;;;;;-3.85;100.00;99008.09;4200138;28;20198;-52
2024/01/19 09:22:07;;;;;;;7.00;6.40;;;;;;;-3.59;100.00;99014.41;4200148;28;20716;-52
2024/01/19 09:24:09;;;;;;;8.53;7.83;;;;;;;-3.61;100.00;99024.44;4200309;28;20633;-51
2024/01/19 09:26:21;;;;;;;10.47;7.20;;;;;;;-3.54;100.00;99021.00;4201483;28;20210;-52